Time;durP1;ratioP1;P1;durP2;ratioP2;P2;SDS_P1;SDS_P2;PMS_P1;PMS_P2;Temp;Humidity;BMP_temperature;BMP_pressure;BME280_temperature;BME280_humidity;BME280_pressure;Samples;Min_cycle;Max_cycle;Signal;HPM_P1;HPM_P2
2021/07/18 00:00:32;;;;;;;1.00;0.70;;;;;;;;;;4543331;28;20068;-60
2021/07/18 00:02:42;;;;;;;1.47;0.90;;;;;;;;;;4525878;28;20041;-61
2021/07/18 00:04:55;;;;;;;0.87;0.73;;;;;;;;;;4543424;28;20124;-61
2021/07/18 00:07:06;;;;;;;1.45;0.80;;;;;;;;;;4525434;28;20080;-61
2021/07/18 00:09:16;;;;;;;1.00;0.50;;;;;;;;;;4542892;28;20164;-61
2021/07/18 00:11:26;;;;;;;1.37;0.70;;;;;;;;;;4524286;28;20115;-61
2021/07/18 00:13:37;;;;;;;1.20;0.80;;;;;;;;;;4526576;28;20032;-61
2021/07/18 00:15:49;;;;;;;2.00;1.00;;;;;;;;;;4541877;28;20155;-61
2021/07/18 00:17:59;;;;;;;1.45;0.90;;;;;;;;;;4527719;28;20033;-60
2021/07/18 00:20:12;;;;;;;1.50;0.73;;;;;;;;;;4543539;28;20052;-61
2021/07/18 00:22:23;;;;;;;1.45;0.70;;;;;;;;;;4526614;28;20092;-60
2021/07/18 00:24:34;;;;;;;1.47;0.80;;;;;;;;;;4543883;28;20084;-61
2021/07/18 00:26:44;;;;;;;0.93;0.70;;;;;;;;;;4527343;28;20097;-61
2021/07/18 00:28:55;;;;;;;0.60;0.60;;;;;;;;;;4543416;28;20028;-61
2021/07/18 00:31:05;;;;;;;0.73;0.60;;;;;;;;;;4542604;28;20527;-61
2021/07/18 00:33:16;;;;;;;1.03;0.80;;;;;;;;;;4546753;28;20041;-61
2021/07/18 00:35:26;;;;;;;0.90;0.77;;;;;;;;;;4524504;28;20044;-61
2021/07/18 00:37:37;;;;;;;0.80;0.60;;;;;;;;;;4525151;28;20036;-61
2021/07/18 00:39:47;;;;;;;0.83;0.77;;;;;;;;;;4512454;28;20032;-61
2021/07/18 00:41:58;;;;;;;1.53;0.90;;;;;;;;;;4523875;28;20038;-61
2021/07/18 00:44:08;;;;;;;1.63;1.00;;;;;;;;;;4541829;28;20412;-61
2021/07/18 00:46:19;;;;;;;1.30;0.67;;;;;;;;;;4541251;28;20122;-61
2021/07/18 00:48:30;;;;;;;1.17;0.80;;;;;;;;;;4510308;28;20037;-60
2021/07/18 00:50:44;;;;;;;0.77;0.73;;;;;;;;;;4526766;28;20704;-61
2021/07/18 00:52:54;;;;;;;0.80;0.70;;;;;;;;;;4543625;28;20032;-60
2021/07/18 00:55:06;;;;;;;1.13;0.80;;;;;;;;;;4525281;28;20041;-60
2021/07/18 00:57:17;;;;;;;1.40;0.80;;;;;;;;;;4525219;28;20034;-61
2021/07/18 00:59:28;;;;;;;0.97;0.80;;;;;;;;;;4524468;28;20034;-61
2021/07/18 01:01:38;;;;;;;0.90;0.90;;;;;;;;;;4543535;28;21580;-61
2021/07/18 01:03:49;;;;;;;1.67;0.90;;;;;;;;;;4526276;28;20045;-61
2021/07/18 01:06:00;;;;;;;1.15;0.80;;;;;;;;;;4544371;28;20622;-61
2021/07/18 01:08:11;;;;;;;0.77;0.70;;;;;;;;;;4543276;28;20075;-61
2021/07/18 01:10:21;;;;;;;2.40;1.00;;;;;;;;;;4543608;28;20044;-61
2021/07/18 01:12:32;;;;;;;1.60;0.83;;;;;;;;;;4542638;28;20278;-60
2021/07/18 01:14:44;;;;;;;1.05;0.88;;;;;;;;;;4541539;28;20033;-61
2021/07/18 01:16:55;;;;;;;1.08;0.95;;;;;;;;;;4510552;28;20041;-61
2021/07/18 01:19:08;;;;;;;1.73;0.82;;;;;;;;;;4541233;28;20029;-60
2021/07/18 01:21:26;;;;;;;1.60;1.00;;;;;;;;;;4541278;28;20036;-60
2021/07/18 01:23:37;;;;;;;1.63;0.90;;;;;;;;;;4525738;28;20076;-61
2021/07/18 01:25:52;;;;;;;2.13;0.80;;;;;;;;;;4540830;28;20040;-61
2021/07/18 01:28:09;;;;;;;1.45;0.90;;;;;;;;;;4542501;28;21024;-61
2021/07/18 01:30:19;;;;;;;1.80;1.10;;;;;;;;;;4524037;28;20033;-61
2021/07/18 01:32:30;;;;;;;1.83;0.90;;;;;;;;;;4511735;28;22872;-61
2021/07/18 01:34:40;;;;;;;1.27;1.10;;;;;;;;;;4523976;28;20033;-60
2021/07/18 01:36:51;;;;;;;1.33;0.90;;;;;;;;;;4526575;28;20041;-60
2021/07/18 01:39:06;;;;;;;1.27;0.90;;;;;;;;;;4524239;28;20185;-60
2021/07/18 01:41:17;;;;;;;1.10;0.90;;;;;;;;;;4510930;28;20305;-60
2021/07/18 01:43:27;;;;;;;1.00;0.80;;;;;;;;;;4542697;28;20128;-60
2021/07/18 01:45:38;;;;;;;1.70;0.93;;;;;;;;;;4539431;28;20096;-60
2021/07/18 01:47:48;;;;;;;1.00;0.80;;;;;;;;;;4543578;28;20060;-61
2021/07/18 01:49:59;;;;;;;0.85;0.80;;;;;;;;;;4542580;28;20068;-61
2021/07/18 01:52:09;;;;;;;1.83;0.90;;;;;;;;;;4545497;28;20048;-60
2021/07/18 01:54:20;;;;;;;1.80;0.87;;;;;;;;;;4542185;28;20031;-60
2021/07/18 01:56:31;;;;;;;2.00;1.03;;;;;;;;;;4541945;28;20037;-61
2021/07/18 01:58:41;;;;;;;1.23;0.90;;;;;;;;;;4524438;28;20079;-61
2021/07/18 02:00:52;;;;;;;1.77;0.90;;;;;;;;;;4544546;28;20116;-61
2021/07/18 02:03:02;;;;;;;2.00;0.80;;;;;;;;;;4524918;28;20025;-61
2021/07/18 02:05:13;;;;;;;1.23;0.90;;;;;;;;;;4541992;28;20043;-61
2021/07/18 02:07:29;;;;;;;1.42;0.90;;;;;;;;;;4524538;28;20037;-60
2021/07/18 02:09:39;;;;;;;1.67;0.90;;;;;;;;;;4540180;28;20561;-60
2021/07/18 02:11:49;;;;;;;1.63;0.80;;;;;;;;;;4522193;28;20061;-61
2021/07/18 02:14:00;;;;;;;1.13;0.80;;;;;;;;;;4541649;28;21384;-61
2021/07/18 02:16:10;;;;;;;1.40;1.00;;;;;;;;;;4541007;28;20207;-61
2021/07/18 02:18:21;;;;;;;1.53;0.97;;;;;;;;;;4524326;28;20025;-60
2021/07/18 02:20:33;;;;;;;1.53;0.90;;;;;;;;;;4542336;28;20064;-61
2021/07/18 02:22:51;;;;;;;1.23;0.80;;;;;;;;;;4541408;28;20032;-61
2021/07/18 02:25:04;;;;;;;1.52;1.00;;;;;;;;;;4540208;28;20075;-61
2021/07/18 02:27:14;;;;;;;1.08;0.98;;;;;;;;;;4511913;28;20022;-60
2021/07/18 02:29:25;;;;;;;2.37;1.10;;;;;;;;;;4540144;28;20037;-61
2021/07/18 02:31:35;;;;;;;1.00;0.90;;;;;;;;;;4524738;28;21221;-61
2021/07/18 02:33:45;;;;;;;1.57;1.00;;;;;;;;;;4524346;28;20158;-61
2021/07/18 02:35:57;;;;;;;1.33;0.97;;;;;;;;;;4523937;28;20038;-61
2021/07/18 02:38:08;;;;;;;2.33;1.00;;;;;;;;;;4540201;28;21052;-60
2021/07/18 02:40:20;;;;;;;1.60;1.10;;;;;;;;;;4542192;28;20041;-61
2021/07/18 02:42:30;;;;;;;1.05;0.80;;;;;;;;;;4542580;28;20044;-61
2021/07/18 02:44:41;;;;;;;0.87;0.80;;;;;;;;;;4522973;28;20052;-61
2021/07/18 02:46:51;;;;;;;1.73;0.90;;;;;;;;;;4520562;28;20026;-60
2021/07/18 02:49:03;;;;;;;1.00;0.90;;;;;;;;;;4541603;28;20068;-61
2021/07/18 02:51:13;;;;;;;;;;;;;;;;;;4541408;28;20130;-61
2021/07/18 02:53:23;;;;;;;1.60;1.00;;;;;;;;;;4540884;28;20032;-61
2021/07/18 02:55:34;;;;;;;2.73;1.17;;;;;;;;;;4524626;28;20069;-61
2021/07/18 02:57:44;;;;;;;1.27;0.90;;;;;;;;;;4541303;28;20044;-60
2021/07/18 02:59:55;;;;;;;2.33;1.10;;;;;;;;;;4539178;28;20033;-61
2021/07/18 03:02:05;;;;;;;1.57;1.13;;;;;;;;;;4539636;28;20504;-60
2021/07/18 03:04:15;;;;;;;2.40;1.23;;;;;;;;;;4540759;28;20041;-61
2021/07/18 03:06:26;;;;;;;3.07;1.30;;;;;;;;;;4541818;28;20121;-61
2021/07/18 03:08:38;;;;;;;1.70;1.30;;;;;;;;;;4542920;28;20061;-61
2021/07/18 03:10:49;;;;;;;1.75;1.45;;;;;;;;;;4543277;28;20867;-61
2021/07/18 03:12:59;;;;;;;2.10;1.10;;;;;;;;;;4545560;28;20033;-60
2021/07/18 03:15:12;;;;;;;1.33;1.17;;;;;;;;;;4543639;28;20033;-61
2021/07/18 03:17:22;;;;;;;3.30;1.48;;;;;;;;;;4526098;28;20042;-61
2021/07/18 03:19:33;;;;;;;1.40;1.30;;;;;;;;;;4525794;28;20033;-61
2021/07/18 03:21:43;;;;;;;2.13;1.37;;;;;;;;;;4527613;28;20037;-60
2021/07/18 03:23:53;;;;;;;1.70;1.20;;;;;;;;;;4529420;28;20580;-61
2021/07/18 03:26:04;;;;;;;2.23;1.20;;;;;;;;;;4545379;28;20041;-60
2021/07/18 03:28:14;;;;;;;1.43;1.10;;;;;;;;;;4528739;28;20026;-60
2021/07/18 03:30:25;;;;;;;1.70;1.30;;;;;;;;;;4544791;28;20044;-61
2021/07/18 03:32:36;;;;;;;2.47;1.23;;;;;;;;;;4544810;28;20048;-61
2021/07/18 03:34:47;;;;;;;1.67;1.03;;;;;;;;;;4542913;28;20028;-61
2021/07/18 03:36:57;;;;;;;1.42;1.02;;;;;;;;;;4545516;28;20499;-60
2021/07/18 03:39:08;;;;;;;1.50;0.80;;;;;;;;;;4527679;28;20470;-61
2021/07/18 03:41:20;;;;;;;1.63;1.17;;;;;;;;;;4546969;28;20037;-60
2021/07/18 03:43:30;;;;;;;1.73;1.10;;;;;;;;;;4545015;28;20046;-60
2021/07/18 03:45:41;;;;;;;1.17;1.03;;;;;;;;;;4545941;28;20033;-60
2021/07/18 03:47:52;;;;;;;2.83;1.33;;;;;;;;;;4541917;28;20025;-61
2021/07/18 03:50:04;;;;;;;1.20;1.00;;;;;;;;;;4545341;28;20573;-60
2021/07/18 03:52:14;;;;;;;2.85;1.20;;;;;;;;;;4543847;28;20029;-60
2021/07/18 03:54:25;;;;;;;2.27;1.10;;;;;;;;;;4543151;28;20540;-61
2021/07/18 03:56:35;;;;;;;2.10;1.00;;;;;;;;;;4543162;28;20037;-60
2021/07/18 03:58:46;;;;;;;2.67;1.43;;;;;;;;;;4542791;28;20040;-61
2021/07/18 04:00:56;;;;;;;2.57;1.20;;;;;;;;;;4526342;28;20031;-61
2021/07/18 04:03:07;;;;;;;1.80;1.30;;;;;;;;;;4526484;28;20064;-61
2021/07/18 04:05:17;;;;;;;2.10;1.23;;;;;;;;;;4543589;28;20562;-61
2021/07/18 04:09:39;;;;;;;2.53;0.98;;;;;;;;;;4502128;28;20065;-61
2021/07/18 04:11:49;;;;;;;2.27;1.30;;;;;;;;;;4487097;28;20045;-60
2021/07/18 04:14:00;;;;;;;4.10;1.30;;;;;;;;;;4506197;28;20092;-60
2021/07/18 04:16:10;;;;;;;1.10;1.00;;;;;;;;;;4488712;28;20109;-61
2021/07/18 04:18:21;;;;;;;1.57;1.20;;;;;;;;;;4505417;28;20100;-61
2021/07/18 04:20:32;;;;;;;1.50;1.20;;;;;;;;;;4505503;28;20026;-61
2021/07/18 04:22:43;;;;;;;;;;;;;;;;;;4506385;28;20034;-62
2021/07/18 04:24:53;;;;;;;1.40;1.00;;;;;;;;;;4504396;28;19925;-60
2021/07/18 04:27:04;;;;;;;1.53;1.10;;;;;;;;;;4505393;28;24738;-60
2021/07/18 04:29:14;;;;;;;1.90;1.43;;;;;;;;;;4504324;28;20495;-60
2021/07/18 04:31:25;;;;;;;1.80;1.40;;;;;;;;;;4489293;28;20038;-60
2021/07/18 04:33:35;;;;;;;2.77;1.43;;;;;;;;;;4505503;28;20067;-62
2021/07/18 04:35:46;;;;;;;1.27;1.10;;;;;;;;;;4506188;28;20034;-61
2021/07/18 04:37:57;;;;;;;1.40;1.10;;;;;;;;;;4504513;28;20058;-61
2021/07/18 04:40:08;;;;;;;1.85;1.25;;;;;;;;;;4505816;28;20356;-60
2021/07/18 04:42:18;;;;;;;2.08;1.30;;;;;;;;;;4505824;28;20967;-60
2021/07/18 04:44:29;;;;;;;2.00;1.27;;;;;;;;;;4505489;28;20050;-60
2021/07/18 04:46:40;;;;;;;2.25;1.38;;;;;;;;;;4505072;28;20060;-60
2021/07/18 04:48:50;;;;;;;2.23;1.40;;;;;;;;;;4504759;28;20034;-61
2021/07/18 04:51:00;;;;;;;2.77;1.40;;;;;;;;;;4505227;28;20438;-61
2021/07/18 04:53:11;;;;;;;1.83;1.10;;;;;;;;;;4519327;28;20042;-61
2021/07/18 04:55:22;;;;;;;2.43;1.33;;;;;;;;;;4505104;28;20038;-60
2021/07/18 04:57:32;;;;;;;1.40;1.30;;;;;;;;;;4504955;28;20494;-61
2021/07/18 04:59:43;;;;;;;2.07;1.30;;;;;;;;;;4504733;28;20088;-61
2021/07/18 05:01:54;;;;;;;1.63;1.10;;;;;;;;;;4504808;28;20037;-60
2021/07/18 05:04:04;;;;;;;2.22;1.20;;;;;;;;;;4502627;28;21135;-61
2021/07/18 05:06:14;;;;;;;1.80;1.30;;;;;;;;;;4504545;28;20060;-61
2021/07/18 05:08:25;;;;;;;1.07;1.00;;;;;;;;;;4512100;28;20069;-61
2021/07/18 05:10:35;;;;;;;1.57;1.30;;;;;;;;;;4487941;28;20165;-60
2021/07/18 05:12:47;;;;;;;3.23;1.40;;;;;;;;;;4523004;28;20038;-60
2021/07/18 05:14:57;;;;;;;;;;;;;;;;;;4505081;28;20033;-61
2021/07/18 05:17:08;;;;;;;2.85;1.40;;;;;;;;;;4522406;28;20377;-61
2021/07/18 05:19:19;;;;;;;2.08;1.33;;;;;;;;;;4504243;28;20030;-61
2021/07/18 05:21:29;;;;;;;2.20;1.43;;;;;;;;;;4504143;28;20038;-60
2021/07/18 05:23:40;;;;;;;3.03;1.70;;;;;;;;;;4522396;28;20045;-60
2021/07/18 05:25:50;;;;;;;1.93;1.70;;;;;;;;;;4507081;28;20339;-60
2021/07/18 05:28:01;;;;;;;3.00;2.10;;;;;;;;;;4522159;28;20037;-61
2021/07/18 05:30:12;;;;;;;3.40;1.57;;;;;;;;;;4498331;28;20101;-61
2021/07/18 05:32:23;;;;;;;2.10;1.60;;;;;;;;;;4504475;28;20863;-61
2021/07/18 05:34:33;;;;;;;2.80;1.70;;;;;;;;;;4522358;28;20037;-61
2021/07/18 05:36:44;;;;;;;2.93;1.67;;;;;;;;;;4521786;28;20466;-60
2021/07/18 05:38:54;;;;;;;2.77;1.83;;;;;;;;;;4522264;28;20047;-61
2021/07/18 05:41:05;;;;;;;2.97;2.03;;;;;;;;;;4521682;28;20045;-61
2021/07/18 05:43:15;;;;;;;2.70;1.77;;;;;;;;;;4521787;28;20038;-61
2021/07/18 05:45:26;;;;;;;2.77;2.00;;;;;;;;;;4520831;28;20048;-61
2021/07/18 05:47:37;;;;;;;4.13;2.57;;;;;;;;;;4503278;28;20709;-61
2021/07/18 05:49:47;;;;;;;2.83;2.10;;;;;;;;;;4520989;28;20026;-61
2021/07/18 05:51:58;;;;;;;3.13;2.30;;;;;;;;;;4503400;28;20037;-61
2021/07/18 05:54:08;;;;;;;3.97;2.10;;;;;;;;;;4520830;28;20041;-61
2021/07/18 05:56:19;;;;;;;2.73;2.17;;;;;;;;;;4521263;28;20079;-61
2021/07/18 05:58:29;;;;;;;3.80;2.53;;;;;;;;;;4521467;28;20041;-61
2021/07/18 06:00:40;;;;;;;3.27;2.47;;;;;;;;;;4521433;28;20323;-60
2021/07/18 06:02:51;;;;;;;3.88;2.60;;;;;;;;;;4497069;28;20033;-61
2021/07/18 06:05:01;;;;;;;3.17;2.10;;;;;;;;;;4521245;28;20037;-60
2021/07/18 06:07:12;;;;;;;2.93;2.10;;;;;;;;;;4486338;28;20038;-60
2021/07/18 06:09:22;;;;;;;3.33;2.20;;;;;;;;;;4521660;28;20038;-60
2021/07/18 06:11:33;;;;;;;4.70;2.63;;;;;;;;;;4496640;28;20402;-61
2021/07/18 06:13:43;;;;;;;3.37;2.30;;;;;;;;;;4497293;28;20100;-61
2021/07/18 06:15:53;;;;;;;4.40;2.47;;;;;;;;;;4520983;28;20490;-60
2021/07/18 06:18:04;;;;;;;3.63;2.20;;;;;;;;;;4521020;28;20038;-59
2021/07/18 06:20:16;;;;;;;3.70;2.47;;;;;;;;;;4521238;28;20037;-61
2021/07/18 06:22:26;;;;;;;2.85;2.30;;;;;;;;;;4497795;28;20583;-60
2021/07/18 06:24:37;;;;;;;3.33;2.60;;;;;;;;;;4521213;28;20045;-60
2021/07/18 06:26:47;;;;;;;5.27;2.50;;;;;;;;;;4521327;28;20057;-60
2021/07/18 06:29:00;;;;;;;4.37;2.70;;;;;;;;;;4503578;28;20073;-60
2021/07/18 06:31:10;;;;;;;3.45;2.55;;;;;;;;;;4521469;28;20800;-60
2021/07/18 06:33:21;;;;;;;4.33;2.60;;;;;;;;;;4503066;28;20040;-60
2021/07/18 06:35:31;;;;;;;4.00;2.53;;;;;;;;;;4521517;28;20061;-60
2021/07/18 06:37:42;;;;;;;2.47;2.27;;;;;;;;;;4497295;28;20041;-60
2021/07/18 06:39:52;;;;;;;4.53;2.60;;;;;;;;;;4521068;28;20033;-60
2021/07/18 06:42:03;;;;;;;3.97;2.70;;;;;;;;;;4521319;28;20113;-60
2021/07/18 06:44:14;;;;;;;3.85;2.58;;;;;;;;;;4521607;28;21241;-60
2021/07/18 06:46:25;;;;;;;3.70;2.27;;;;;;;;;;4521050;28;20096;-60
2021/07/18 06:48:35;;;;;;;2.40;2.10;;;;;;;;;;4488184;28;20316;-59
2021/07/18 06:50:45;;;;;;;2.70;2.00;;;;;;;;;;4520900;28;20029;-60
2021/07/18 06:52:56;;;;;;;2.90;2.10;;;;;;;;;;4520703;28;20025;-60
2021/07/18 06:55:07;;;;;;;3.17;2.10;;;;;;;;;;4521749;28;20339;-61
2021/07/18 06:57:19;;;;;;;;;;;;;;;;;;4521857;28;20029;-60
2021/07/18 06:59:29;;;;;;;3.22;2.40;;;;;;;;;;4521459;28;19921;-60
2021/07/18 07:01:40;;;;;;;3.40;2.20;;;;;;;;;;4521234;28;20497;-60
2021/07/18 07:03:50;;;;;;;2.87;1.90;;;;;;;;;;4521292;28;20056;-60
2021/07/18 07:06:02;;;;;;;3.63;2.40;;;;;;;;;;4521050;28;20072;-60
2021/07/18 07:08:13;;;;;;;2.42;1.98;;;;;;;;;;4517975;28;20127;-60
2021/07/18 07:10:24;;;;;;;2.88;2.20;;;;;;;;;;4520515;28;20628;-60
2021/07/18 07:12:34;;;;;;;2.97;2.00;;;;;;;;;;4520742;28;20029;-59
2021/07/18 07:14:45;;;;;;;3.00;2.20;;;;;;;;;;4520736;28;20038;-60
2021/07/18 07:16:55;;;;;;;3.07;2.03;;;;;;;;;;4520708;28;20045;-60
2021/07/18 07:19:06;;;;;;;2.23;2.03;;;;;;;;;;4520572;28;20087;-60
2021/07/18 07:21:16;;;;;;;2.70;2.23;;;;;;;;;;4496165;28;20034;-60
2021/07/18 07:23:27;;;;;;;3.23;2.10;;;;;;;;;;4502997;28;20502;-60
2021/07/18 07:25:37;;;;;;;2.80;2.10;;;;;;;;;;4520882;28;20065;-60
2021/07/18 07:27:48;;;;;;;2.77;2.17;;;;;;;;;;4521211;28;20040;-60
2021/07/18 07:30:01;;;;;;;3.00;2.13;;;;;;;;;;4503046;28;20940;-60
2021/07/18 07:32:11;;;;;;;2.67;2.08;;;;;;;;;;4503333;28;20057;-60
2021/07/18 07:34:22;;;;;;;2.50;1.90;;;;;;;;;;4521185;28;20415;-60
2021/07/18 07:36:32;;;;;;;2.57;2.20;;;;;;;;;;4520703;28;20393;-60
2021/07/18 07:38:43;;;;;;;3.87;2.20;;;;;;;;;;4502199;28;20032;-60
2021/07/18 07:40:53;;;;;;;3.47;2.20;;;;;;;;;;4496631;28;20064;-60
2021/07/18 07:43:06;;;;;;;2.93;2.27;;;;;;;;;;4500617;28;20065;-60
2021/07/18 07:45:17;;;;;;;3.17;2.22;;;;;;;;;;4520732;28;20076;-60
2021/07/18 07:47:28;;;;;;;;;;;;;;;;;;4504915;28;20605;-60
2021/07/18 07:49:38;;;;;;;2.67;1.73;;;;;;;;;;4521373;28;19921;-60
2021/07/18 07:51:49;;;;;;;2.80;1.80;;;;;;;;;;4521280;28;20034;-60
2021/07/18 07:53:59;;;;;;;2.40;1.70;;;;;;;;;;4505682;28;20044;-60
2021/07/18 07:56:10;;;;;;;3.63;2.07;;;;;;;;;;4500699;28;20466;-58
2021/07/18 07:58:20;;;;;;;2.53;1.77;;;;;;;;;;4523659;28;20044;-60
2021/07/18 08:00:30;;;;;;;2.90;1.87;;;;;;;;;;4522862;28;20033;-60
2021/07/18 08:02:42;;;;;;;3.40;2.20;;;;;;;;;;4522730;28;20398;-60
2021/07/18 08:04:52;;;;;;;;;;;;;;;;;;4503908;28;20085;-60
2021/07/18 08:07:03;;;;;;;2.47;1.80;;;;;;;;;;4523511;28;19952;-60
2021/07/18 08:09:13;;;;;;;2.93;1.93;;;;;;;;;;4522356;28;20072;-60
2021/07/18 08:11:24;;;;;;;2.03;1.50;;;;;;;;;;4523827;28;20113;-60
2021/07/18 08:13:35;;;;;;;2.50;1.60;;;;;;;;;;4523356;28;20073;-61
2021/07/18 08:15:45;;;;;;;3.10;1.90;;;;;;;;;;4523096;28;20096;-60
2021/07/18 08:17:56;;;;;;;2.67;2.10;;;;;;;;;;4497534;28;20081;-60
2021/07/18 08:20:08;;;;;;;3.47;2.33;;;;;;;;;;4488422;28;20038;-59
2021/07/18 08:22:19;;;;;;;3.88;2.15;;;;;;;;;;4504741;28;20034;-74
2021/07/18 08:24:29;;;;;;;2.50;1.73;;;;;;;;;;4523085;28;20549;-62
2021/07/18 08:26:40;;;;;;;2.73;1.53;;;;;;;;;;4522894;28;20033;-59
2021/07/18 08:28:50;;;;;;;2.03;1.67;;;;;;;;;;4522682;28;20116;-60
2021/07/18 08:31:00;;;;;;;2.80;1.83;;;;;;;;;;4506390;28;20038;-60
2021/07/18 08:33:11;;;;;;;2.83;1.90;;;;;;;;;;4523077;28;20092;-58
2021/07/18 08:35:21;;;;;;;2.40;1.83;;;;;;;;;;4504270;28;20038;-59
2021/07/18 08:37:32;;;;;;;4.40;2.20;;;;;;;;;;4522673;28;20049;-59
2021/07/18 08:39:43;;;;;;;3.97;2.00;;;;;;;;;;4522474;28;20038;-59
2021/07/18 08:41:54;;;;;;;3.07;2.10;;;;;;;;;;4522214;28;20033;-60
2021/07/18 08:44:05;;;;;;;2.83;2.10;;;;;;;;;;4487760;28;20038;-60
2021/07/18 08:46:18;;;;;;;2.63;2.03;;;;;;;;;;4506517;28;20541;-60
2021/07/18 08:48:29;;;;;;;4.30;2.50;;;;;;;;;;4521875;28;20040;-61
2021/07/18 08:50:40;;;;;;;3.53;1.95;;;;;;;;;;4522534;28;20624;-60
2021/07/18 08:52:54;;;;;;;2.30;1.70;;;;;;;;;;4522846;28;20037;-60
2021/07/18 08:55:06;;;;;;;2.50;1.80;;;;;;;;;;4521023;28;20049;-60
2021/07/18 08:57:20;;;;;;;;;;;;;;;;;;4522832;28;20033;-59
2021/07/18 08:59:35;;;;;;;2.90;1.88;;;;;;;;;;4503973;28;20553;-60
2021/07/18 09:01:45;;;;;;;4.75;2.05;;;;;;;;;;4521908;28;21096;-60
2021/07/18 09:03:56;;;;;;;3.23;2.10;;;;;;;;;;4504884;28;20036;-60
2021/07/18 09:06:10;;;;;;;2.77;1.90;;;;;;;;;;4522321;28;20044;-60
2021/07/18 09:08:23;;;;;;;4.13;2.40;;;;;;;;;;4521562;28;20038;-60
2021/07/18 09:10:33;;;;;;;4.07;2.30;;;;;;;;;;4522056;28;20087;-60
2021/07/18 09:13:00;;;;;;;2.93;1.90;;;;;;;;;;4506157;28;20077;-60
2021/07/18 09:15:11;;;;;;;3.05;2.00;;;;;;;;;;4487384;28;20038;-59
2021/07/18 09:17:21;;;;;;;2.53;2.10;;;;;;;;;;4521779;28;20033;-60
2021/07/18 09:19:36;;;;;;;2.60;1.80;;;;;;;;;;4500656;28;20034;-60
2021/07/18 09:22:11;;;;;;;3.50;2.08;;;;;;;;;;4496219;28;20121;-60
2021/07/18 09:24:24;;;;;;;3.92;2.10;;;;;;;;;;4521391;28;20057;-60
2021/07/18 09:26:34;;;;;;;3.30;2.10;;;;;;;;;;4522041;28;20029;-60
2021/07/18 09:28:45;;;;;;;2.43;1.77;;;;;;;;;;4497805;28;20042;-60
2021/07/18 09:30:55;;;;;;;2.83;1.80;;;;;;;;;;4522077;28;20490;-60
2021/07/18 09:33:06;;;;;;;3.40;1.83;;;;;;;;;;4522134;28;20052;-60
2021/07/18 09:35:18;;;;;;;3.97;1.58;;;;;;;;;;4521917;28;20040;-60
2021/07/18 09:37:31;;;;;;;2.10;1.40;;;;;;;;;;4521977;28;20633;-60
2021/07/18 09:39:52;;;;;;;1.73;1.55;;;;;;;;;;4522339;28;20042;-60
2021/07/18 09:42:02;;;;;;;1.90;1.50;;;;;;;;;;4522034;28;20758;-61
2021/07/18 09:44:13;;;;;;;2.40;1.40;;;;;;;;;;4499193;28;20046;-60
2021/07/18 09:46:30;;;;;;;2.70;1.30;;;;;;;;;;4503734;28;20037;-60
2021/07/18 09:48:46;;;;;;;4.50;1.40;;;;;;;;;;4505556;28;20038;-60
2021/07/18 09:51:06;;;;;;;2.08;1.40;;;;;;;;;;4521947;28;20037;-60
2021/07/18 09:53:22;;;;;;;2.70;1.35;;;;;;;;;;4521347;28;20120;-60
2021/07/18 09:55:32;;;;;;;3.40;1.17;;;;;;;;;;4503600;28;20125;-61
2021/07/18 09:57:43;;;;;;;2.20;1.33;;;;;;;;;;4521388;28;20082;-60
2021/07/18 09:59:53;;;;;;;3.53;1.47;;;;;;;;;;4521420;28;20111;-60
2021/07/18 10:02:04;;;;;;;1.97;1.50;;;;;;;;;;4521800;28;20072;-60
2021/07/18 10:04:18;;;;;;;1.90;1.00;;;;;;;;;;4503893;28;20502;-60
2021/07/18 10:06:30;;;;;;;1.58;1.15;;;;;;;;;;4521804;28;20041;-60
2021/07/18 10:08:52;;;;;;;1.23;1.02;;;;;;;;;;4496138;28;20064;-60
2021/07/18 10:11:03;;;;;;;;;;;;;;;;;;4521872;28;20037;-60
2021/07/18 10:13:14;;;;;;;2.28;1.40;;;;;;;;;;4503930;28;20397;-60
2021/07/18 10:15:25;;;;;;;2.20;1.10;;;;;;;;;;4520984;28;20057;-60
2021/07/18 10:17:36;;;;;;;1.88;1.50;;;;;;;;;;4521680;28;20098;-60
2021/07/18 10:19:46;;;;;;;1.20;1.10;;;;;;;;;;4521833;28;20039;-60
2021/07/18 10:21:57;;;;;;;2.70;1.13;;;;;;;;;;4522042;28;20049;-60
2021/07/18 10:24:09;;;;;;;1.85;1.20;;;;;;;;;;4521375;28;20836;-61
2021/07/18 10:26:24;;;;;;;;;;;;;;;;;;4496107;28;20034;-60
2021/07/18 10:28:35;;;;;;;1.83;1.20;;;;;;;;;;4521245;28;19917;-60
2021/07/18 10:30:48;;;;;;;1.92;1.20;;;;;;;;;;4504798;28;20029;-60
2021/07/18 10:32:59;;;;;;;1.25;1.15;;;;;;;;;;4506101;28;20088;-60
2021/07/18 10:35:10;;;;;;;2.85;1.20;;;;;;;;;;4520490;28;20048;-60
2021/07/18 10:37:21;;;;;;;2.10;1.27;;;;;;;;;;4486045;28;20042;-60
2021/07/18 10:39:34;;;;;;;2.63;1.27;;;;;;;;;;4521072;28;20049;-59
2021/07/18 10:41:45;;;;;;;1.40;1.05;;;;;;;;;;4504174;28;20293;-60
2021/07/18 10:43:55;;;;;;;2.47;1.30;;;;;;;;;;4519375;28;20041;-60
2021/07/18 10:46:09;;;;;;;1.50;1.10;;;;;;;;;;4520605;28;20485;-60
2021/07/18 10:48:19;;;;;;;1.70;1.10;;;;;;;;;;4503228;28;20049;-60
2021/07/18 10:50:42;;;;;;;1.63;1.00;;;;;;;;;;4503766;28;20037;-61
2021/07/18 10:53:18;;;;;;;2.05;1.00;;;;;;;;;;4520424;28;20042;-60
2021/07/18 10:55:29;;;;;;;1.30;0.95;;;;;;;;;;4521430;28;20037;-60
2021/07/18 10:57:48;;;;;;;1.70;1.07;;;;;;;;;;4502283;28;21125;-60
2021/07/18 11:00:24;;;;;;;1.95;1.20;;;;;;;;;;4521414;28;20588;-60
2021/07/18 11:02:35;;;;;;;1.42;1.10;;;;;;;;;;4520864;28;20030;-60
2021/07/18 11:04:53;;;;;;;1.47;1.10;;;;;;;;;;4521568;28;20050;-60
2021/07/18 11:07:25;;;;;;;1.77;1.05;;;;;;;;;;4521221;28;20114;-61
2021/07/18 11:09:45;;;;;;;1.02;0.93;;;;;;;;;;4521132;28;20068;-61
2021/07/18 11:11:57;;;;;;;1.02;0.93;;;;;;;;;;4495982;28;20062;-60
2021/07/18 11:14:20;;;;;;;;;;;;;;;;;;4521845;28;20040;-61
2021/07/18 11:16:47;;;;;;;1.50;0.90;;;;;;;;;;4504070;28;19921;-61
2021/07/18 11:18:58;;;;;;;1.90;1.10;;;;;;;;;;4518659;28;20198;-60
2021/07/18 11:21:08;;;;;;;1.87;0.90;;;;;;;;;;4521164;28;20512;-61
2021/07/18 11:23:42;;;;;;;1.50;0.97;;;;;;;;;;4521228;28;20578;-61
2021/07/18 11:25:59;;;;;;;1.40;1.02;;;;;;;;;;4520871;28;20545;-66
2021/07/18 11:30:41;;;;;;;3.65;1.20;;;;;;;;;;4523606;28;20786;-65
2021/07/18 11:32:53;;;;;;;1.48;1.00;;;;;;;;;;4506509;28;20029;-62
2021/07/18 11:35:17;;;;;;;1.45;1.20;;;;;;;;;;4524657;28;20033;-62
2021/07/18 11:37:31;;;;;;;2.28;1.10;;;;;;;;;;4523960;28;20679;-62
2021/07/18 11:39:43;;;;;;;2.05;1.08;;;;;;;;;;4492313;28;20064;-62
2021/07/18 11:41:55;;;;;;;1.30;0.90;;;;;;;;;;4505888;28;20890;-60
2021/07/18 11:44:05;;;;;;;;;;;;;;;;;;4524536;28;20045;-59
2021/07/18 11:46:17;;;;;;;1.03;0.90;;;;;;;;;;4493045;28;20390;-59
2021/07/18 11:48:28;;;;;;;1.50;1.20;;;;;;;;;;4522984;28;20080;-61
2021/07/18 11:50:38;;;;;;;1.83;1.15;;;;;;;;;;4505188;28;20673;-62
2021/07/18 11:52:49;;;;;;;1.63;1.00;;;;;;;;;;4493496;28;20047;-62
2021/07/18 11:55:00;;;;;;;1.60;0.95;;;;;;;;;;4524372;28;20072;-61
2021/07/18 11:57:13;;;;;;;2.07;1.00;;;;;;;;;;4523782;28;20037;-63
2021/07/18 11:59:24;;;;;;;1.10;1.00;;;;;;;;;;4498529;28;20026;-62
2021/07/18 12:01:39;;;;;;;;;;;;;;;;;;4500687;28;20045;-60
2021/07/18 12:03:49;;;;;;;1.15;1.05;;;;;;;;;;4505592;28;19921;-60
2021/07/18 12:06:00;;;;;;;1.17;1.00;;;;;;;;;;4498505;28;20049;-61
2021/07/18 12:08:10;;;;;;;1.03;0.90;;;;;;;;;;4485243;28;20285;-60
2021/07/18 12:10:21;;;;;;;2.07;1.13;;;;;;;;;;4504424;28;20038;-61
2021/07/18 12:12:32;;;;;;;1.98;1.00;;;;;;;;;;4523280;28;20080;-64
2021/07/18 12:14:44;;;;;;;1.90;1.17;;;;;;;;;;4507230;28;20048;-60
2021/07/18 12:16:55;;;;;;;1.40;1.05;;;;;;;;;;4503642;28;20041;-62
2021/07/18 12:19:07;;;;;;;1.65;1.00;;;;;;;;;;4523203;28;20022;-62
2021/07/18 12:21:28;;;;;;;3.13;1.00;;;;;;;;;;4503153;28;20077;-62
2021/07/18 12:23:38;;;;;;;;;;;;;;;;;;4514155;28;20045;-62
2021/07/18 12:25:56;;;;;;;2.25;1.15;;;;;;;;;;4523482;28;19921;-63
2021/07/18 12:28:08;;;;;;;1.17;1.00;;;;;;;;;;4480357;28;20499;-62
2021/07/18 12:30:18;;;;;;;;;;;;;;;;;;4506481;28;20034;-62
2021/07/18 12:32:31;;;;;;;1.08;0.85;;;;;;;;;;4507202;28;20404;-63
2021/07/18 12:34:47;;;;;;;1.60;1.10;;;;;;;;;;4526876;28;20033;-62
2021/07/18 12:37:11;;;;;;;1.58;1.17;;;;;;;;;;4486005;28;20857;-62
2021/07/18 12:39:24;;;;;;;1.45;1.00;;;;;;;;;;4486598;28;20034;-62
2021/07/18 12:41:34;;;;;;;1.27;0.90;;;;;;;;;;4524111;28;20074;-62
2021/07/18 12:43:45;;;;;;;1.10;1.00;;;;;;;;;;4491033;28;20046;-62
2021/07/18 12:45:55;;;;;;;1.13;1.00;;;;;;;;;;4523080;28;20084;-62
2021/07/18 12:48:10;;;;;;;2.03;0.98;;;;;;;;;;4521481;28;20025;-62
2021/07/18 12:50:33;;;;;;;2.10;1.10;;;;;;;;;;4499332;28;20109;-62
2021/07/18 12:52:52;;;;;;;1.70;1.00;;;;;;;;;;4523187;28;21574;-62
2021/07/18 12:55:13;;;;;;;1.92;1.30;;;;;;;;;;4523018;28;20037;-62
2021/07/18 12:57:30;;;;;;;2.38;1.42;;;;;;;;;;4488603;28;20058;-62
2021/07/18 12:59:41;;;;;;;1.95;1.13;;;;;;;;;;4507824;28;20129;-62
2021/07/18 13:01:51;;;;;;;1.20;0.90;;;;;;;;;;4522961;28;20140;-63
2021/07/18 13:04:06;;;;;;;1.93;1.10;;;;;;;;;;4522485;28;20033;-62
2021/07/18 13:06:19;;;;;;;1.73;1.10;;;;;;;;;;4523020;28;20033;-62
2021/07/18 13:08:34;;;;;;;2.67;1.10;;;;;;;;;;4504416;28;20050;-62
2021/07/18 13:10:46;;;;;;;1.13;1.00;;;;;;;;;;4504576;28;20032;-63
2021/07/18 13:13:01;;;;;;;1.75;0.98;;;;;;;;;;4520567;28;20586;-63
2021/07/18 13:15:19;;;;;;;1.58;1.00;;;;;;;;;;4504897;28;20100;-63
2021/07/18 13:17:29;;;;;;;2.13;1.00;;;;;;;;;;4524183;28;20028;-64
2021/07/18 13:19:44;;;;;;;1.50;1.07;;;;;;;;;;4528052;28;20092;-64